createdAt,value
2023-01-13T00:01:09.814Z,8.51
2023-01-13T00:03:36.805Z,8.51
2023-01-13T00:06:04.144Z,8.42
2023-01-13T00:08:31.072Z,8.40
2023-01-13T00:10:57.506Z,8.33
2023-01-13T00:13:27.069Z,8.34
2023-01-13T00:15:58.258Z,8.21
2023-01-13T00:18:25.303Z,8.22
2023-01-13T00:21:06.425Z,8.20
2023-01-13T00:23:34.848Z,8.10
2023-01-13T00:26:04.480Z,8.10
2023-01-13T00:28:31.369Z,8.09
2023-01-13T00:31:08.646Z,8.09
2023-01-13T00:33:35.782Z,8.07
2023-01-13T00:36:04.566Z,8.11
2023-01-13T00:38:32.619Z,8.12
2023-01-13T00:41:01.645Z,8.09
2023-01-13T00:43:29.887Z,8.13
2023-01-13T00:45:56.405Z,8.11
2023-01-13T00:48:23.973Z,8.10
2023-01-13T00:51:03.721Z,8.12
2023-01-13T00:53:34.613Z,8.14
2023-01-13T00:56:02.720Z,8.16
2023-01-13T00:58:32.430Z,8.17
2023-01-13T01:01:08.119Z,8.20
2023-01-13T01:03:35.339Z,8.19
2023-01-13T01:06:07.825Z,8.23
2023-01-13T01:08:35.731Z,8.23
2023-01-13T01:11:08.960Z,8.24
2023-01-13T01:13:36.989Z,8.27
2023-01-13T01:16:09.345Z,8.28
2023-01-13T01:18:37.924Z,8.23
2023-01-13T01:21:05.219Z,8.24
2023-01-13T01:23:33.259Z,8.23
2023-01-13T01:26:01.776Z,8.17
2023-01-13T01:28:28.830Z,8.16
2023-01-13T01:30:55.368Z,8.12
2023-01-13T01:33:22.098Z,8.09
2023-01-13T01:35:48.647Z,8.13
2023-01-13T01:38:15.111Z,8.08
2023-01-13T01:40:41.573Z,8.13
2023-01-13T01:43:54.285Z,8.11
2023-01-13T01:46:20.969Z,8.09
2023-01-13T01:48:47.629Z,8.10
2023-01-13T01:51:14.304Z,8.08
2023-01-13T01:53:41.794Z,8.11
2023-01-13T01:56:10.653Z,8.09
2023-01-13T01:58:47.191Z,8.07
2023-01-13T02:01:14.306Z,8.08
2023-01-13T02:03:45.751Z,8.05
2023-01-13T02:06:13.356Z,8.03
2023-01-13T02:08:41.204Z,8.00
2023-01-13T02:11:27.722Z,7.97
2023-01-13T02:13:54.252Z,8.00
2023-01-13T02:16:24.628Z,7.99
2023-01-13T02:19:12.787Z,7.93
2023-01-13T02:22:12.969Z,7.93
2023-01-13T02:25:06.201Z,7.84
2023-01-13T02:28:02.726Z,7.83
2023-01-13T02:31:15.706Z,7.86
2023-01-13T02:33:50.133Z,7.84
2023-01-13T02:36:42.961Z,7.82
2023-01-13T02:39:23.652Z,7.85
2023-01-13T02:42:38.117Z,7.85
2023-01-13T02:45:07.814Z,7.91
2023-01-13T02:47:38.169Z,7.92
2023-01-13T02:50:12.979Z,7.89
2023-01-13T02:52:57.109Z,7.95
2023-01-13T02:55:32.220Z,7.94
2023-01-13T02:58:01.260Z,7.92
2023-01-13T03:00:29.710Z,7.94
2023-01-13T03:02:56.886Z,7.95
2023-01-13T03:05:23.586Z,7.97
2023-01-13T03:08:15.574Z,7.95
2023-01-13T03:11:05.357Z,7.97
2023-01-13T03:13:57.920Z,7.94
2023-01-13T03:16:46.093Z,7.96
2023-01-13T03:19:27.604Z,7.95
2023-01-13T03:22:03.257Z,7.93
2023-01-13T03:24:38.581Z,7.95
2023-01-13T03:27:15.073Z,8.05
2023-01-13T03:29:50.733Z,8.07
2023-01-13T03:32:23.228Z,8.08
2023-01-13T03:34:55.487Z,8.09
2023-01-13T03:37:27.972Z,8.06
2023-01-13T03:40:00.168Z,8.08
2023-01-13T03:42:30.359Z,8.02
2023-01-13T03:45:17.758Z,8.01
2023-01-13T03:47:56.296Z,7.98
2023-01-13T03:50:28.269Z,7.97
2023-01-13T03:53:11.107Z,7.96
2023-01-13T03:55:47.191Z,8.01
2023-01-13T03:58:39.336Z,8.02
2023-01-13T04:01:12.362Z,7.95
2023-01-13T04:04:02.380Z,7.88
2023-01-13T04:06:54.147Z,7.84
2023-01-13T04:09:28.413Z,7.82
2023-01-13T04:12:07.639Z,7.80
2023-01-13T04:14:35.613Z,7.81
2023-01-13T04:17:02.068Z,7.76
2023-01-13T04:19:28.710Z,7.75
2023-01-13T04:21:55.199Z,7.71
2023-01-13T04:24:21.676Z,7.65
2023-01-13T04:26:48.099Z,7.72
2023-01-13T04:29:15.744Z,7.71
2023-01-13T04:31:42.942Z,7.67
2023-01-13T04:34:12.535Z,7.64
2023-01-13T04:36:38.996Z,7.62
2023-01-13T04:39:05.486Z,7.59
2023-01-13T04:41:51.919Z,7.66
2023-01-13T04:44:18.580Z,7.65
2023-01-13T04:46:45.059Z,7.65
2023-01-13T04:49:11.490Z,7.63
2023-01-13T04:51:37.992Z,7.58
2023-01-13T04:54:04.562Z,7.55
2023-01-13T04:56:31.002Z,7.61
2023-01-13T04:58:57.518Z,7.53
2023-01-13T05:01:24.110Z,7.53
2023-01-13T05:03:50.598Z,7.55
2023-01-13T05:06:17.108Z,7.55
2023-01-13T05:08:43.569Z,7.52
2023-01-13T05:11:28.319Z,7.55
2023-01-13T05:14:13.194Z,7.57
2023-01-13T05:16:58.454Z,7.55
2023-01-13T05:19:24.920Z,7.58
2023-01-13T05:22:10.005Z,7.59
2023-01-13T05:24:54.940Z,7.62
2023-01-13T05:27:21.448Z,7.65
2023-01-13T05:29:47.898Z,7.69
2023-01-13T05:32:14.402Z,7.70
2023-01-13T05:34:40.919Z,7.72
2023-01-13T05:37:08.283Z,7.77
2023-01-13T05:39:53.363Z,7.77
2023-01-13T05:42:38.217Z,7.73
2023-01-13T05:45:05.090Z,7.67
2023-01-13T05:47:32.644Z,7.61
2023-01-13T05:49:59.134Z,7.57
2023-01-13T05:52:25.663Z,7.51
2023-01-13T05:54:52.112Z,7.51
2023-01-13T05:57:18.626Z,7.50
2023-01-13T05:59:45.091Z,7.53
2023-01-13T06:02:11.562Z,7.52
2023-01-13T06:04:38.079Z,7.50
2023-01-13T06:07:04.541Z,7.44
2023-01-13T06:09:31.821Z,7.41
2023-01-13T06:11:58.333Z,7.44
2023-01-13T06:14:24.810Z,7.42
2023-01-13T06:16:51.330Z,7.45
2023-01-13T06:19:17.823Z,7.41
2023-01-13T06:21:44.920Z,7.39
2023-01-13T06:24:11.431Z,7.35
2023-01-13T06:26:41.521Z,7.34
2023-01-13T06:29:10.100Z,7.35
2023-01-13T06:31:38.495Z,7.38
2023-01-13T06:34:13.541Z,7.41
2023-01-13T06:36:52.172Z,7.38
2023-01-13T06:39:23.002Z,7.38
2023-01-13T06:42:11.550Z,7.38
2023-01-13T06:44:38.313Z,7.42
2023-01-13T06:47:05.155Z,7.46
2023-01-13T06:49:31.711Z,7.47
2023-01-13T06:51:58.165Z,7.45
2023-01-13T06:54:26.301Z,7.46
2023-01-13T06:56:54.075Z,7.47
2023-01-13T06:59:20.506Z,7.46
2023-01-13T07:01:47.183Z,7.50
2023-01-13T07:04:13.831Z,7.53
2023-01-13T07:06:40.336Z,7.49
2023-01-13T07:09:07.076Z,7.49
2023-01-13T07:11:33.770Z,7.54
2023-01-13T07:14:19.823Z,7.52
2023-01-13T07:16:46.862Z,7.54
2023-01-13T07:19:13.342Z,7.58
2023-01-13T07:21:39.844Z,7.57
2023-01-13T07:24:06.640Z,7.56
2023-01-13T07:26:33.111Z,7.55
2023-01-13T07:29:00.858Z,7.50
2023-01-13T07:31:27.363Z,7.56
2023-01-13T07:33:53.907Z,7.58
2023-01-13T07:36:20.435Z,7.63
2023-01-13T07:38:47.003Z,7.63
2023-01-13T07:41:33.505Z,7.67
2023-01-13T07:44:00.538Z,7.66
2023-01-13T07:46:27.118Z,7.67
2023-01-13T07:48:53.586Z,7.68
2023-01-13T07:51:20.025Z,7.69
2023-01-13T07:53:46.588Z,7.70
2023-01-13T07:56:13.066Z,7.75
2023-01-13T07:58:39.544Z,7.75
2023-01-13T08:01:12.197Z,7.75
2023-01-13T08:03:39.832Z,7.76
2023-01-13T08:06:07.122Z,7.75
2023-01-13T08:08:33.987Z,7.74
2023-01-13T08:11:01.731Z,7.71
2023-01-13T08:13:28.215Z,7.71
2023-01-13T08:16:00.941Z,7.67
2023-01-13T08:18:27.578Z,7.70
2023-01-13T08:20:54.691Z,7.72
2023-01-13T08:23:22.385Z,7.70
2023-01-13T08:25:49.847Z,7.71
2023-01-13T08:28:17.137Z,7.70
2023-01-13T08:30:44.121Z,7.72
2023-01-13T08:33:12.177Z,7.71
2023-01-13T08:35:40.251Z,7.71
2023-01-13T08:38:08.046Z,7.72
2023-01-13T08:40:35.112Z,7.72
2023-01-13T08:43:03.152Z,7.77
2023-01-13T08:45:29.634Z,7.75
2023-01-13T08:47:56.347Z,7.75
2023-01-13T08:50:22.810Z,7.76
2023-01-13T08:52:49.305Z,7.74
2023-01-13T08:55:15.877Z,7.72
2023-01-13T08:57:42.424Z,7.66
2023-01-13T09:00:09.862Z,7.64
2023-01-13T09:02:38.601Z,7.59
2023-01-13T09:05:07.330Z,7.48
2023-01-13T09:07:35.399Z,7.46
2023-01-13T09:10:03.589Z,7.43
2023-01-13T09:12:48.560Z,7.43
2023-01-13T09:15:18.367Z,7.38
2023-01-13T09:17:45.391Z,7.35
2023-01-13T09:20:13.135Z,7.30
2023-01-13T09:22:40.672Z,7.29
2023-01-13T09:25:07.571Z,7.30
2023-01-13T09:27:33.999Z,7.29
2023-01-13T09:30:00.495Z,7.24
2023-01-13T09:32:27.053Z,7.19
2023-01-13T09:35:02.476Z,7.12
2023-01-13T09:37:36.540Z,7.07
2023-01-13T09:40:23.585Z,7.04
2023-01-13T09:43:19.579Z,7.01
2023-01-13T09:46:36.298Z,6.98
2023-01-13T09:49:04.022Z,6.92
2023-01-13T09:51:37.711Z,6.90
2023-01-13T09:54:16.130Z,6.93
2023-01-13T09:56:43.668Z,6.96
2023-01-13T09:59:12.287Z,7.03
2023-01-13T10:01:47.507Z,7.04
2023-01-13T10:04:15.826Z,7.06
2023-01-13T10:06:47.631Z,7.04
2023-01-13T10:09:30.249Z,7.03
2023-01-13T10:12:18.191Z,7.02
2023-01-13T10:14:55.988Z,7.05
2023-01-13T10:17:39.263Z,7.10
2023-01-13T10:20:22.670Z,7.17
2023-01-13T10:22:58.077Z,7.19
2023-01-13T10:25:34.575Z,7.25
2023-01-13T10:28:08.712Z,7.26
2023-01-13T10:30:46.088Z,7.33
2023-01-13T10:33:30.285Z,7.34
2023-01-13T10:36:13.124Z,7.39
2023-01-13T10:38:45.837Z,7.43
2023-01-13T10:41:15.367Z,7.42
2023-01-13T10:44:08.455Z,7.36
2023-01-13T10:46:54.026Z,7.26
2023-01-13T10:49:34.018Z,7.29
2023-01-13T10:52:02.157Z,7.26
2023-01-13T10:54:29.342Z,7.30
2023-01-13T10:57:19.715Z,7.35
2023-01-13T10:59:46.793Z,7.35
2023-01-13T11:02:27.024Z,7.39
2023-01-13T11:04:53.788Z,7.40
2023-01-13T11:07:29.022Z,7.45
2023-01-13T11:10:14.602Z,7.48
2023-01-13T11:13:01.302Z,7.52
2023-01-13T11:16:00.234Z,7.55
2023-01-13T11:18:51.959Z,7.57
2023-01-13T11:21:29.840Z,7.64
2023-01-13T11:24:09.445Z,7.64
2023-01-13T11:26:47.065Z,7.62
2023-01-13T11:29:43.195Z,7.61
2023-01-13T11:32:16.826Z,7.63
2023-01-13T11:34:47.001Z,7.65
2023-01-13T11:37:37.380Z,7.69
2023-01-13T11:40:13.394Z,7.72
2023-01-13T11:43:15.318Z,7.75
2023-01-13T11:45:53.577Z,7.77
2023-01-13T11:48:27.097Z,7.82
2023-01-13T11:51:03.424Z,7.81
2023-01-13T11:53:54.820Z,7.82
2023-01-13T11:56:50.610Z,7.88
2023-01-13T11:59:46.823Z,7.89
2023-01-13T12:02:27.783Z,7.82
2023-01-13T12:05:00.349Z,7.79
2023-01-13T12:07:57.771Z,7.72
2023-01-13T12:10:51.919Z,7.59
2023-01-13T12:13:24.767Z,7.40
2023-01-13T12:16:13.969Z,7.33
2023-01-13T12:19:07.710Z,7.38
2023-01-13T12:21:40.931Z,7.38
2023-01-13T12:24:35.202Z,7.42
2023-01-13T12:27:10.489Z,7.40
2023-01-13T12:29:38.381Z,7.42
2023-01-13T12:32:11.659Z,7.48
2023-01-13T12:35:05.822Z,7.57
2023-01-13T12:37:39.733Z,7.66
2023-01-13T12:40:34.115Z,7.74
2023-01-13T12:43:36.436Z,7.78
2023-01-13T12:46:24.513Z,7.85
2023-01-13T12:48:57.183Z,7.89
2023-01-13T12:51:57.580Z,7.89
2023-01-13T12:54:39.235Z,7.88
2023-01-13T12:57:22.110Z,7.89
2023-01-13T13:00:03.632Z,7.87
2023-01-13T13:02:38.909Z,7.93
2023-01-13T13:05:14.564Z,7.93
2023-01-13T13:08:07.080Z,7.92
2023-01-13T13:10:47.874Z,7.95
2023-01-13T13:13:45.940Z,8.00
2023-01-13T13:16:24.726Z,8.03
2023-01-13T13:18:51.449Z,8.04
2023-01-13T13:21:18.048Z,8.05
2023-01-13T13:24:04.234Z,8.05
2023-01-13T13:26:45.769Z,8.10
2023-01-13T13:29:34.931Z,8.12
2023-01-13T13:32:13.767Z,8.09
2023-01-13T13:34:40.179Z,8.11
2023-01-13T13:38:00.315Z,8.12
2023-01-13T13:40:58.635Z,8.14
2023-01-13T13:43:50.207Z,8.16
2023-01-13T13:46:46.815Z,8.18
2023-01-13T13:49:15.546Z,8.18
2023-01-13T13:51:46.081Z,8.18
2023-01-13T13:54:20.913Z,8.16
2023-01-13T13:56:50.314Z,8.19
2023-01-13T13:59:23.507Z,8.21
2023-01-13T14:02:01.004Z,8.24
2023-01-13T14:04:36.384Z,8.25
2023-01-13T14:07:17.997Z,8.24
2023-01-13T14:09:46.636Z,8.28
2023-01-13T14:12:23.289Z,8.29
2023-01-13T14:14:50.900Z,8.34
2023-01-13T14:17:19.043Z,8.36
2023-01-13T14:19:52.672Z,8.37
2023-01-13T14:22:19.611Z,8.40
2023-01-13T14:24:49.225Z,8.43
2023-01-13T14:27:18.095Z,8.42
2023-01-13T14:29:45.216Z,8.47
2023-01-13T14:32:18.710Z,8.49
2023-01-13T14:34:45.493Z,8.49
2023-01-13T14:37:24.102Z,8.52
2023-01-13T14:39:50.590Z,8.50
2023-01-13T14:42:17.476Z,8.52
2023-01-13T14:44:49.701Z,8.52
2023-01-13T14:47:36.809Z,8.56
2023-01-13T14:50:13.453Z,8.58
2023-01-13T14:52:57.097Z,8.60
2023-01-13T14:55:26.906Z,8.61
2023-01-13T14:57:53.454Z,8.58
2023-01-13T15:00:23.603Z,8.59
2023-01-13T15:02:56.006Z,8.58
2023-01-13T15:05:25.283Z,8.54
2023-01-13T15:07:56.014Z,8.51
2023-01-13T15:10:27.373Z,8.52
2023-01-13T15:12:56.057Z,8.52
2023-01-13T15:15:37.867Z,8.58
2023-01-13T15:18:15.711Z,8.58
2023-01-13T15:20:42.467Z,8.57
2023-01-13T15:23:09.418Z,8.54
2023-01-13T15:25:38.592Z,8.54
2023-01-13T15:28:07.064Z,8.55
2023-01-13T15:30:34.248Z,8.59
2023-01-13T15:33:00.883Z,8.54
2023-01-13T15:35:28.781Z,8.54
2023-01-13T15:37:56.840Z,8.50
2023-01-13T15:40:26.904Z,8.48
2023-01-13T15:43:11.950Z,8.46
2023-01-13T15:45:57.309Z,8.45
2023-01-13T15:48:24.725Z,8.45
2023-01-13T15:50:51.260Z,8.45
2023-01-13T15:53:18.127Z,8.41
2023-01-13T15:55:49.224Z,8.37
2023-01-13T15:58:18.505Z,8.40
2023-01-13T16:00:45.057Z,8.38
2023-01-13T16:03:13.851Z,8.38
2023-01-13T16:05:41.691Z,8.38
2023-01-13T16:08:26.274Z,8.35
2023-01-13T16:10:52.744Z,8.32
2023-01-13T16:13:19.227Z,8.33
2023-01-13T16:15:48.754Z,8.31
2023-01-13T16:18:26.089Z,8.31
2023-01-13T16:20:53.555Z,8.33
2023-01-13T16:23:20.334Z,8.35
2023-01-13T16:25:47.594Z,8.32
2023-01-13T16:28:23.924Z,8.31
2023-01-13T16:30:51.208Z,8.25
2023-01-13T16:33:17.922Z,8.25
2023-01-13T16:36:10.891Z,8.25
2023-01-13T16:38:30.948Z,8.23
2023-01-13T16:40:57.631Z,8.20
2023-01-13T16:43:24.125Z,8.22
2023-01-13T16:45:50.623Z,8.23
2023-01-13T16:48:20.660Z,8.29
2023-01-13T16:50:47.471Z,8.28
2023-01-13T16:53:13.991Z,8.27
2023-01-13T16:55:41.671Z,8.26
2023-01-13T16:58:26.192Z,8.23
2023-01-13T17:00:52.960Z,8.26
2023-01-13T17:03:19.710Z,8.28
2023-01-13T17:05:49.391Z,8.27
2023-01-13T17:08:20.140Z,8.27
2023-01-13T17:10:47.587Z,8.26
2023-01-13T17:13:16.713Z,8.26
2023-01-13T17:15:44.608Z,8.27
2023-01-13T17:18:13.296Z,8.23
2023-01-13T17:20:40.641Z,8.16
2023-01-13T17:23:07.159Z,8.01
2023-01-13T17:25:33.707Z,7.87
2023-01-13T17:28:00.188Z,7.79
2023-01-13T17:30:26.710Z,7.75
2023-01-13T17:32:53.310Z,7.76
2023-01-13T17:35:24.544Z,7.73
2023-01-13T17:37:54.342Z,7.71
2023-01-13T17:40:21.123Z,7.65
2023-01-13T17:42:47.697Z,7.59
2023-01-13T17:45:14.279Z,7.53
2023-01-13T17:47:40.723Z,7.32
2023-01-13T17:50:07.631Z,7.19
2023-01-13T17:52:34.931Z,7.02
2023-01-13T17:55:01.430Z,6.93
2023-01-13T17:57:28.029Z,6.83
2023-01-13T17:59:54.682Z,6.81
2023-01-13T18:02:21.341Z,6.74
2023-01-13T18:04:47.867Z,6.69
2023-01-13T18:07:14.396Z,6.69
2023-01-13T18:09:40.949Z,6.74
2023-01-13T18:12:07.551Z,6.76
2023-01-13T18:14:34.923Z,6.80
2023-01-13T18:17:01.455Z,6.86
2023-01-13T18:19:46.551Z,6.87
2023-01-13T18:22:32.268Z,6.87
2023-01-13T18:25:17.581Z,6.95
2023-01-13T18:27:44.170Z,7.02
2023-01-13T18:30:12.279Z,7.02
2023-01-13T18:32:38.761Z,7.03
2023-01-13T18:35:10.149Z,7.05
2023-01-13T18:37:39.973Z,7.05
2023-01-13T18:40:09.883Z,7.01
2023-01-13T18:42:54.075Z,6.94
2023-01-13T18:45:26.053Z,6.94
2023-01-13T18:47:54.027Z,6.88
2023-01-13T18:50:21.178Z,6.85
2023-01-13T18:52:47.951Z,6.81
2023-01-13T18:55:14.562Z,6.79
2023-01-13T18:57:41.252Z,6.82
2023-01-13T19:00:10.808Z,6.80
2023-01-13T19:02:37.364Z,6.78
2023-01-13T19:05:04.182Z,6.81
2023-01-13T19:07:31.908Z,6.85
2023-01-13T19:09:59.573Z,6.84
2023-01-13T19:12:27.578Z,6.80
2023-01-13T19:14:55.493Z,6.79
2023-01-13T19:17:23.784Z,6.75
2023-01-13T19:19:55.049Z,6.71
2023-01-13T19:22:24.145Z,6.66
2023-01-13T19:24:50.814Z,6.64
2023-01-13T19:27:19.333Z,6.62
2023-01-13T19:29:51.088Z,6.63
2023-01-13T19:32:20.505Z,6.64
2023-01-13T19:34:49.195Z,6.69
2023-01-13T19:37:16.009Z,6.70
2023-01-13T19:39:42.682Z,6.77
2023-01-13T19:42:32.319Z,6.85
2023-01-13T19:45:17.744Z,6.87
2023-01-13T19:47:45.684Z,6.88
2023-01-13T19:50:13.830Z,6.88
2023-01-13T19:52:41.856Z,6.87
2023-01-13T19:55:09.844Z,6.86
2023-01-13T19:57:37.377Z,6.87
2023-01-13T20:00:07.841Z,6.86
2023-01-13T20:02:36.640Z,6.92
2023-01-13T20:05:05.854Z,6.93
2023-01-13T20:07:33.634Z,6.96
2023-01-13T20:10:01.515Z,6.98
2023-01-13T20:12:29.130Z,7.01
2023-01-13T20:14:56.046Z,6.98
2023-01-13T20:17:22.817Z,6.97
2023-01-13T20:19:49.292Z,6.98
2023-01-13T20:22:15.858Z,6.99
2023-01-13T20:24:42.615Z,7.00
2023-01-13T20:27:09.465Z,6.96
2023-01-13T20:29:35.964Z,6.91
2023-01-13T20:32:02.742Z,6.87
2023-01-13T20:34:29.689Z,6.85
2023-01-13T20:36:56.499Z,6.84
2023-01-13T20:39:26.239Z,6.85
2023-01-13T20:42:11.867Z,6.85
2023-01-13T20:44:38.465Z,6.85
2023-01-13T20:47:05.011Z,6.86
2023-01-13T20:49:31.680Z,6.86
2023-01-13T20:51:58.592Z,6.83
2023-01-13T20:54:25.686Z,6.84
2023-01-13T20:56:52.221Z,6.83
2023-01-13T20:59:18.877Z,6.83
2023-01-13T21:01:45.618Z,6.82
2023-01-13T21:04:12.226Z,6.82
2023-01-13T21:06:38.904Z,6.86
2023-01-13T21:09:05.369Z,6.89
2023-01-13T21:11:50.125Z,6.90
2023-01-13T21:14:40.431Z,6.91
2023-01-13T21:17:28.353Z,6.94
2023-01-13T21:19:55.766Z,6.96
2023-01-13T21:22:22.399Z,6.98
2023-01-13T21:24:48.903Z,7.01
2023-01-13T21:27:15.389Z,7.05
2023-01-13T21:29:44.460Z,7.03
2023-01-13T21:32:11.393Z,7.03
2023-01-13T21:34:37.908Z,7.04
2023-01-13T21:37:04.478Z,7.07
2023-01-13T21:39:30.920Z,7.08
2023-01-13T21:42:16.111Z,7.05
2023-01-13T21:45:00.876Z,7.08
2023-01-13T21:47:45.566Z,7.05
2023-01-13T21:50:14.437Z,7.05
2023-01-13T21:52:43.681Z,7.12
2023-01-13T21:55:19.694Z,7.14
2023-01-13T21:57:47.342Z,7.17
2023-01-13T22:00:15.192Z,7.15
2023-01-13T22:02:42.436Z,7.15
2023-01-13T22:05:11.412Z,7.10
2023-01-13T22:07:39.099Z,7.10
2023-01-13T22:10:08.896Z,7.09
2023-01-13T22:12:35.913Z,7.11
2023-01-13T22:15:02.479Z,7.15
2023-01-13T22:17:31.500Z,7.18
2023-01-13T22:19:59.131Z,7.19
2023-01-13T22:22:26.396Z,7.18
2023-01-13T22:24:53.859Z,7.20
2023-01-13T22:27:26.215Z,7.19
2023-01-13T22:29:53.208Z,7.24
2023-01-13T22:32:21.089Z,7.24
2023-01-13T22:34:48.114Z,7.23
2023-01-13T22:37:15.036Z,7.27
2023-01-13T22:39:41.519Z,7.32
2023-01-13T22:42:10.047Z,7.32
2023-01-13T22:44:36.501Z,7.35
2023-01-13T22:47:02.992Z,7.33
2023-01-13T22:49:29.544Z,7.31
2023-01-13T22:51:55.994Z,7.33
2023-01-13T22:54:22.507Z,7.29
2023-01-13T22:56:48.958Z,7.29
2023-01-13T22:59:16.847Z,7.35
2023-01-13T23:01:43.791Z,7.36
2023-01-13T23:04:15.205Z,7.35
2023-01-13T23:06:41.756Z,7.33
2023-01-13T23:09:08.456Z,7.35
2023-01-13T23:11:35.364Z,7.43
2023-01-13T23:14:06.924Z,7.40
2023-01-13T23:16:36.759Z,7.39
2023-01-13T23:19:05.304Z,7.44
2023-01-13T23:21:35.968Z,7.39
2023-01-13T23:24:03.942Z,7.38
2023-01-13T23:26:31.813Z,7.41
2023-01-13T23:29:04.369Z,7.39
2023-01-13T23:31:31.231Z,7.37
2023-01-13T23:33:58.250Z,7.33
2023-01-13T23:36:26.949Z,7.30
2023-01-13T23:38:54.019Z,7.32
2023-01-13T23:41:23.707Z,7.27
2023-01-13T23:43:55.233Z,7.26
2023-01-13T23:46:22.180Z,7.27
2023-01-13T23:48:49.423Z,7.24
2023-01-13T23:51:15.917Z,7.11
2023-01-13T23:53:45.323Z,7.05
2023-01-13T23:56:16.522Z,6.98
2023-01-13T23:58:43.843Z,6.89
